This is the latest recevied weather packets stored in our database for station/object KJ5MTR. If no packets are shown the sender has not sent any weather packets the latest 10 day(s).
| Time | Temp. | Humidity | Pressure | Rain* | Wind** | Luminosity | Snow |
|---|---|---|---|---|---|---|---|
| 1777529716 | 16.67° C | 94% | 1013.3 hPa | 0 mm | - | - | - |
| 1777526136 | 17.22° C | 92% | 1013.9 hPa | 0 mm | - | - | - |
| 1777518916 | 16.67° C | 91% | 1013.1 hPa | 0 mm | - | - | - |
| 1777518336 | 16.67° C | 91% | 1012.9 hPa | 0 mm | - | - | - |
| 1777516516 | 16.67° C | 91% | 1012.2 hPa | 0 mm | - | - | - |
| 1777515916 | 16.67° C | 91% | 1012.3 hPa | 0 mm | - | - | - |
| 1777515316 | 16.67° C | 91% | 1012.7 hPa | 0 mm | - | - | - |
| 1777513516 | 16.11° C | 92% | 1011.9 hPa | 0 mm | - | - | - |
| 1777511716 | 16.67° C | 92% | 1012 hPa | 0 mm | - | - | - |
| 1777510516 | 16.67° C | 92% | 1011.9 hPa | 0 mm | - | - | - |
| 1777509336 | 16.67° C | 92% | 1011.5 hPa | 0 mm | - | - | - |
| 1777508716 | 16.67° C | 93% | 1011.5 hPa | 0 mm | - | - | - |
| 1777508136 | 17.22° C | 93% | 1011.4 hPa | 0 mm | - | - | - |
| 1777503316 | 17.78° C | 92% | 1010.9 hPa | 0 mm | - | - | - |
| 1777501536 | 17.78° C | 92% | 1010.8 hPa | 0 mm | - | - | - |
| 1777498516 | 17.78° C | 93% | 1010.5 hPa | 0 mm | - | - | - |
| 1777497316 | 18.33° C | 93% | 1010.8 hPa | 0 mm | - | - | - |
| 1777496115 | 18.89° C | 93% | 1010.8 hPa | 0.25 mm | - | - | - |
| 1777494317 | 18.89° C | 94% | 1011.1 hPa | 0.51 mm | - | - | - |
| 1777491338 | 19.44° C | 93% | 1012.3 hPa | 0.25 mm | - | - | - |
| 1777490716 | 20° C | 93% | 1012.3 hPa | 0 mm | - | - | - |
| 1777482917 | 27.78° C | 85% | 1012.1 hPa | 0 mm | - | - | - |
| 1777481737 | 27.78° C | 88% | 1012.4 hPa | 0 mm | - | - | - |
| 1777478117 | 25° C | 93% | 1012.5 hPa | 0.51 mm | - | - | - |
| 1777472717 | 25° C | 93% | 1012.4 hPa | 0 mm | - | - | - |
* Rain latest hour (hover to see other rain measurements)
** Current wind speed in m/s (hover to see current wind gust speed)